createdAt,value
2019-03-12T00:00:57.926Z,14.37
2019-03-12T00:03:27.024Z,13.73
2019-03-12T00:05:56.236Z,12.37
2019-03-12T00:08:25.357Z,13.30
2019-03-12T00:10:54.563Z,12.43
2019-03-12T00:13:23.524Z,10.37
2019-03-12T00:15:52.669Z,13.60
2019-03-12T00:18:22.132Z,13.87
2019-03-12T00:20:51.789Z,11.50
2019-03-12T00:23:20.996Z,11.70
2019-03-12T00:25:50.123Z,12.90
2019-03-12T00:28:19.246Z,13.00
2019-03-12T00:30:48.469Z,13.23
2019-03-12T00:33:20.109Z,11.50
2019-03-12T00:35:49.299Z,13.00
2019-03-12T00:38:18.421Z,11.73
2019-03-12T00:40:47.686Z,14.30
2019-03-12T00:43:16.878Z,12.37
2019-03-12T00:45:46.072Z,14.70
2019-03-12T00:48:15.261Z,15.83
2019-03-12T00:50:44.357Z,13.27
2019-03-12T00:53:13.517Z,16.00
2019-03-12T00:55:42.677Z,12.43
2019-03-12T00:58:11.871Z,11.57
2019-03-12T01:00:41.005Z,12.43
2019-03-12T01:03:10.305Z,11.97
2019-03-12T01:05:39.429Z,11.90
2019-03-12T01:08:08.631Z,13.23
2019-03-12T01:10:37.809Z,14.47
2019-03-12T01:13:14.996Z,16.30
2019-03-12T01:15:44.280Z,11.90
2019-03-12T01:18:13.929Z,14.03
2019-03-12T01:20:43.365Z,14.07
2019-03-12T01:23:12.512Z,13.70
2019-03-12T01:25:41.636Z,14.03
2019-03-12T01:28:10.852Z,15.27
2019-03-12T01:30:40.526Z,21.53
2019-03-12T01:33:09.733Z,15.83
2019-03-12T01:35:38.901Z,16.67
2019-03-12T01:38:08.053Z,19.10
2019-03-12T01:40:37.302Z,18.17
2019-03-12T01:43:06.452Z,15.60
2019-03-12T01:45:35.689Z,19.97
2019-03-12T01:48:04.806Z,15.43
2019-03-12T01:50:34.054Z,14.13
2019-03-12T01:53:03.187Z,17.30
2019-03-12T01:55:32.299Z,18.43
2019-03-12T01:58:01.433Z,16.13
2019-03-12T02:00:30.945Z,16.67
2019-03-12T02:03:00.102Z,14.53
2019-03-12T02:05:29.317Z,17.23
2019-03-12T02:07:58.609Z,21.17
2019-03-12T02:10:27.691Z,19.10
2019-03-12T02:12:56.816Z,22.77
2019-03-12T02:15:26.110Z,19.53
2019-03-12T02:17:55.280Z,20.33
2019-03-12T02:20:24.510Z,17.83
2019-03-12T02:22:53.696Z,20.93
2019-03-12T02:25:22.951Z,19.93
2019-03-12T02:27:52.165Z,20.43
2019-03-12T02:30:21.839Z,19.30
2019-03-12T02:32:51.146Z,20.27
2019-03-12T02:35:20.527Z,21.57
2019-03-12T02:37:50.533Z,22.77
2019-03-12T02:40:19.671Z,22.17
2019-03-12T02:42:48.901Z,20.67
2019-03-12T02:45:18.112Z,19.60
2019-03-12T02:47:47.442Z,23.60
2019-03-12T02:50:16.875Z,20.00
2019-03-12T02:52:46.160Z,24.33
2019-03-12T02:55:15.382Z,20.90
2019-03-12T02:57:44.600Z,22.67
2019-03-12T03:00:16.914Z,22.10
2019-03-12T03:02:46.134Z,21.80
2019-03-12T03:05:15.277Z,19.83
2019-03-12T03:07:55.716Z,18.70
2019-03-12T03:10:25.139Z,23.63
2019-03-12T03:12:54.465Z,22.80
2019-03-12T03:15:25.551Z,23.63
2019-03-12T03:17:54.749Z,23.80
2019-03-12T03:20:23.942Z,21.27
2019-03-12T03:22:53.227Z,22.67
2019-03-12T03:25:22.486Z,24.27
2019-03-12T03:27:51.644Z,23.27
2019-03-12T03:30:22.639Z,23.13
2019-03-12T03:32:51.890Z,19.80
2019-03-12T03:35:21.277Z,22.43
2019-03-12T03:37:50.501Z,24.33
2019-03-12T03:40:20.623Z,23.70
2019-03-12T03:42:50.020Z,23.60
2019-03-12T03:45:19.272Z,20.83
2019-03-12T03:47:48.513Z,19.63
2019-03-12T03:50:18.522Z,20.90
2019-03-12T03:52:47.786Z,23.10
2019-03-12T03:55:17.356Z,21.73
2019-03-12T03:57:46.546Z,21.97
2019-03-12T04:00:18.497Z,23.43
2019-03-12T04:02:47.674Z,20.33
2019-03-12T04:05:16.845Z,23.47
2019-03-12T04:07:46.428Z,20.47
2019-03-12T04:10:27.345Z,24.83
2019-03-12T04:12:56.431Z,23.93
2019-03-12T04:15:44.718Z,22.90
2019-03-12T04:18:13.923Z,20.73
2019-03-12T04:20:43.018Z,22.20
2019-03-12T04:23:15.836Z,25.80
2019-03-12T04:25:43.139Z,20.50
2019-03-12T04:28:12.514Z,22.07
2019-03-12T04:30:46.186Z,19.90
2019-03-12T04:33:51.505Z,17.23
2019-03-12T04:36:20.655Z,20.83
2019-03-12T04:38:51.952Z,21.63
2019-03-12T04:41:21.322Z,19.00
2019-03-12T04:43:50.477Z,21.67
2019-03-12T04:46:19.915Z,20.33
2019-03-12T04:48:49.303Z,22.00
2019-03-12T04:51:18.678Z,24.03
2019-03-12T04:53:47.739Z,18.90
2019-03-12T04:56:17.036Z,17.57
2019-03-12T04:58:46.217Z,19.57
2019-03-12T05:01:15.925Z,20.83
2019-03-12T05:03:45.035Z,17.20
2019-03-12T05:06:14.248Z,19.30
2019-03-12T05:08:44.450Z,15.97
2019-03-12T05:11:14.856Z,20.27
2019-03-12T05:14:04.674Z,16.87
2019-03-12T05:16:34.054Z,16.47
2019-03-12T05:19:03.229Z,12.33
2019-03-12T05:21:32.404Z,17.33
2019-03-12T05:24:01.440Z,14.47
2019-03-12T05:26:30.461Z,15.70
2019-03-12T05:28:59.726Z,15.37
2019-03-12T05:31:28.823Z,15.17
2019-03-12T05:33:57.974Z,14.50
2019-03-12T05:36:27.145Z,15.10
2019-03-12T05:38:56.429Z,12.53
2019-03-12T05:41:25.429Z,14.30
2019-03-12T05:43:54.578Z,18.40
2019-03-12T05:46:23.649Z,14.17
2019-03-12T05:48:52.969Z,15.70
2019-03-12T05:51:22.013Z,13.37
2019-03-12T05:53:51.290Z,13.60
2019-03-12T05:56:20.536Z,14.50
2019-03-12T05:58:49.634Z,17.10
2019-03-12T06:01:18.709Z,14.03
2019-03-12T06:03:47.857Z,12.63
2019-03-12T06:06:17.559Z,14.20
2019-03-12T06:08:46.661Z,14.87
2019-03-12T06:11:18.784Z,13.43
2019-03-12T06:13:47.876Z,11.37
2019-03-12T06:16:17.004Z,11.43
2019-03-12T06:18:46.640Z,11.50
2019-03-12T06:21:17.327Z,14.03
2019-03-12T06:23:46.431Z,10.13
2019-03-12T06:26:15.786Z,10.27
2019-03-12T06:28:44.898Z,13.97
2019-03-12T06:31:24.825Z,11.67
2019-03-12T06:34:00.813Z,10.83
2019-03-12T06:36:49.588Z,8.83
2019-03-12T06:39:28.717Z,9.53
2019-03-12T06:42:17.171Z,9.60
2019-03-12T06:44:58.308Z,12.80
2019-03-12T06:47:41.329Z,12.33
2019-03-12T06:50:28.433Z,9.70
2019-03-12T06:53:15.268Z,9.77
2019-03-12T06:56:06.697Z,14.03
2019-03-12T06:58:52.887Z,10.67
2019-03-12T07:01:40.284Z,9.57
2019-03-12T07:04:16.169Z,10.17
2019-03-12T07:07:11.552Z,8.57
2019-03-12T07:09:58.089Z,12.17
2019-03-12T07:12:40.385Z,15.03
2019-03-12T07:15:23.122Z,12.90
2019-03-12T07:18:03.904Z,11.63
2019-03-12T07:20:55.267Z,15.43
2019-03-12T07:23:42.434Z,14.67
2019-03-12T07:26:29.506Z,13.37
2019-03-12T07:29:17.064Z,12.53
2019-03-12T07:32:08.279Z,13.33
2019-03-12T07:34:48.532Z,18.53
2019-03-12T07:37:40.006Z,15.20
2019-03-12T07:40:28.895Z,12.03
2019-03-12T07:43:04.491Z,14.90
2019-03-12T07:45:41.909Z,18.57
2019-03-12T07:48:37.911Z,16.00
2019-03-12T07:51:23.270Z,14.53
2019-03-12T07:54:11.466Z,12.93
2019-03-12T07:56:59.648Z,14.60
2019-03-12T07:59:51.025Z,17.00
2019-03-12T08:02:31.114Z,14.77
2019-03-12T08:05:08.181Z,15.87
2019-03-12T08:08:03.963Z,13.80
2019-03-12T08:10:47.733Z,14.80
2019-03-12T08:13:35.938Z,15.30
2019-03-12T08:16:23.291Z,11.73
2019-03-12T08:19:05.953Z,14.17
2019-03-12T08:21:44.310Z,15.73
2019-03-12T08:24:25.361Z,14.40
2019-03-12T08:27:13.818Z,15.97
2019-03-12T08:30:20.589Z,14.17
2019-03-12T08:33:08.496Z,13.73
2019-03-12T08:35:55.956Z,17.37
2019-03-12T08:38:47.047Z,15.70
2019-03-12T08:41:25.664Z,14.10
2019-03-12T08:44:09.828Z,14.30
2019-03-12T08:46:48.361Z,16.50
2019-03-12T08:49:36.414Z,14.37
2019-03-12T08:52:15.831Z,12.60
2019-03-12T08:55:04.505Z,12.20
2019-03-12T08:57:58.708Z,14.33
2019-03-12T09:01:02.423Z,12.13
2019-03-12T09:03:50.720Z,16.57
2019-03-12T09:06:33.339Z,10.77
2019-03-12T09:09:13.188Z,13.70
2019-03-12T09:12:00.110Z,10.40
2019-03-12T09:15:04.740Z,13.10
2019-03-12T09:17:51.996Z,9.50
2019-03-12T09:20:39.303Z,13.23
2019-03-12T09:23:26.597Z,13.77
2019-03-12T09:26:18.398Z,11.17
2019-03-12T09:28:54.582Z,9.67
2019-03-12T09:31:40.927Z,13.67
2019-03-12T09:34:44.864Z,9.87
2019-03-12T09:37:25.848Z,11.43
2019-03-12T09:40:13.417Z,8.13
2019-03-12T09:43:01.692Z,9.33
2019-03-12T09:46:07.437Z,7.07
2019-03-12T09:48:51.451Z,7.57
2019-03-12T09:51:35.106Z,7.90
2019-03-12T09:54:24.798Z,18.90
2019-03-12T09:57:19.685Z,7.43
2019-03-12T10:00:16.147Z,7.93
2019-03-12T10:10:16.413Z,9.30
2019-03-12T10:19:51.668Z,14.40
2019-03-12T10:22:43.166Z,5.80
2019-03-12T10:25:29.968Z,7.17
2019-03-12T10:28:09.898Z,7.97
2019-03-12T10:30:59.951Z,6.67
2019-03-12T10:33:48.050Z,7.17
2019-03-12T10:36:39.738Z,6.50
2019-03-12T10:39:52.332Z,5.27
2019-03-12T10:42:31.927Z,5.87
2019-03-12T10:45:08.777Z,7.70
2019-03-12T10:47:38.712Z,6.83
2019-03-12T10:50:09.286Z,11.53
2019-03-12T10:52:39.528Z,12.07
2019-03-12T10:55:13.445Z,10.97
2019-03-12T10:57:41.345Z,7.10
2019-03-12T11:00:12.276Z,7.87
2019-03-12T11:02:41.909Z,8.87
2019-03-12T11:05:12.089Z,9.07
2019-03-12T11:07:42.055Z,6.27
2019-03-12T11:10:12.796Z,7.10
2019-03-12T11:12:44.308Z,6.57
2019-03-12T11:15:15.242Z,4.77
2019-03-12T11:17:49.882Z,5.80
2019-03-12T11:20:16.811Z,5.50
2019-03-12T11:22:46.409Z,7.73
2019-03-12T11:25:26.386Z,9.13
2019-03-12T11:27:47.173Z,5.27
2019-03-12T11:30:18.940Z,4.67
2019-03-12T11:32:48.863Z,6.33
2019-03-12T11:35:24.407Z,6.10
2019-03-12T11:37:57.720Z,6.20
2019-03-12T11:40:32.000Z,4.50
2019-03-12T11:43:00.071Z,4.23
2019-03-12T11:45:36.711Z,5.37
2019-03-12T11:48:02.286Z,6.63
2019-03-12T11:50:31.533Z,5.57
2019-03-12T11:53:01.393Z,8.13
2019-03-12T11:55:31.681Z,4.80
2019-03-12T11:58:03.931Z,5.70
2019-03-12T12:00:39.326Z,3.70
2019-03-12T12:03:09.024Z,4.53
2019-03-12T12:05:38.873Z,5.87
2019-03-12T12:08:08.562Z,6.60
2019-03-12T12:10:38.195Z,4.27
2019-03-12T12:13:08.155Z,5.53
2019-03-12T12:15:38.018Z,5.73
2019-03-12T12:18:08.101Z,4.57
2019-03-12T12:20:38.332Z,5.50
2019-03-12T12:23:07.848Z,3.43
2019-03-12T12:25:37.496Z,4.67
2019-03-12T12:28:07.243Z,5.97
2019-03-12T12:30:36.361Z,4.63
2019-03-12T12:33:05.702Z,3.37
2019-03-12T12:35:34.890Z,4.00
2019-03-12T12:38:04.044Z,4.43
2019-03-12T12:40:33.353Z,3.10
2019-03-12T12:43:02.739Z,3.63
2019-03-12T12:45:32.267Z,3.07
2019-03-12T12:48:01.515Z,4.27
2019-03-12T12:50:30.705Z,7.10
2019-03-12T12:52:59.869Z,4.63
2019-03-12T12:55:29.491Z,2.13
2019-03-12T12:57:58.963Z,3.47
2019-03-12T13:00:28.805Z,3.83
2019-03-12T13:02:59.635Z,4.87
2019-03-12T13:05:29.361Z,4.07
2019-03-12T13:07:59.246Z,4.77
2019-03-12T13:10:28.717Z,6.47
2019-03-12T13:12:58.460Z,4.70
2019-03-12T13:15:28.536Z,3.93
2019-03-12T13:17:57.807Z,5.00
2019-03-12T13:20:27.102Z,5.00
2019-03-12T13:22:56.305Z,3.73
2019-03-12T13:25:25.454Z,5.93
2019-03-12T13:27:54.649Z,4.63
2019-03-12T13:30:23.787Z,7.67
2019-03-12T13:32:53.117Z,5.90
2019-03-12T13:35:22.313Z,6.40
2019-03-12T13:37:55.684Z,4.73
2019-03-12T13:40:25.504Z,4.43
2019-03-12T13:42:56.881Z,6.20
2019-03-12T13:45:25.872Z,5.37
2019-03-12T13:47:55.166Z,4.70
2019-03-12T13:50:25.524Z,4.70
2019-03-12T13:52:54.866Z,4.27
2019-03-12T13:55:24.038Z,4.63
2019-03-12T13:57:53.226Z,5.33
2019-03-12T14:00:23.011Z,4.00
2019-03-12T14:02:52.636Z,4.80
2019-03-12T14:05:21.860Z,3.87
2019-03-12T14:07:51.102Z,3.90
2019-03-12T14:10:21.343Z,4.17
2019-03-12T14:12:51.018Z,3.53
2019-03-12T14:15:25.795Z,7.27
2019-03-12T14:17:55.062Z,8.10
2019-03-12T14:20:41.723Z,4.10
2019-03-12T14:23:11.817Z,6.87
2019-03-12T14:25:41.225Z,4.33
2019-03-12T14:28:10.564Z,5.27
2019-03-12T14:30:39.800Z,5.37
2019-03-12T14:33:09.377Z,4.73
2019-03-12T14:35:50.432Z,5.23
2019-03-12T14:38:09.446Z,6.57
2019-03-12T14:40:38.770Z,4.83
2019-03-12T14:43:08.317Z,5.27
2019-03-12T14:45:38.982Z,5.63
2019-03-12T14:48:12.923Z,5.47
2019-03-12T14:50:42.253Z,4.70
2019-03-12T14:53:21.451Z,6.37
2019-03-12T14:55:42.508Z,6.47
2019-03-12T14:58:11.732Z,7.90
2019-03-12T15:00:40.880Z,5.60
2019-03-12T15:03:10.227Z,10.80
2019-03-12T15:05:39.353Z,6.60
2019-03-12T15:08:11.862Z,4.77
2019-03-12T15:10:42.442Z,7.60
2019-03-12T15:13:11.587Z,8.50
2019-03-12T15:15:40.753Z,9.97
2019-03-12T15:18:10.081Z,8.90
2019-03-12T15:20:39.049Z,5.70
2019-03-12T15:23:08.221Z,8.87
2019-03-12T15:25:37.313Z,8.80
2019-03-12T15:28:06.416Z,8.17
2019-03-12T15:30:35.607Z,8.57
2019-03-12T15:33:05.241Z,7.43
2019-03-12T15:35:34.414Z,7.27
2019-03-12T15:38:03.600Z,9.93
2019-03-12T15:40:32.722Z,7.33
2019-03-12T15:43:02.007Z,8.53
2019-03-12T15:45:31.306Z,10.27
2019-03-12T15:48:00.388Z,6.50
2019-03-12T15:50:29.707Z,8.90
2019-03-12T15:52:58.892Z,9.97
2019-03-12T15:55:28.027Z,9.03
2019-03-12T15:57:57.407Z,8.57
2019-03-12T16:00:26.582Z,7.43
2019-03-12T16:02:55.861Z,6.27
2019-03-12T16:05:24.944Z,10.83
2019-03-12T16:07:54.081Z,7.70
2019-03-12T16:10:23.291Z,8.53
2019-03-12T16:12:52.401Z,7.53
2019-03-12T16:15:21.549Z,7.57
2019-03-12T16:17:50.736Z,9.23
2019-03-12T16:20:19.932Z,7.37
2019-03-12T16:22:49.370Z,9.43
2019-03-12T16:25:18.689Z,8.50
2019-03-12T16:27:47.939Z,8.70
2019-03-12T16:30:17.245Z,11.30
2019-03-12T16:32:46.679Z,5.57
2019-03-12T16:35:15.996Z,7.03
2019-03-12T16:37:45.309Z,9.03
2019-03-12T16:40:14.466Z,5.00
2019-03-12T16:42:47.348Z,6.63
2019-03-12T16:45:16.573Z,7.47
2019-03-12T16:47:45.845Z,9.03
2019-03-12T16:50:15.327Z,9.63
2019-03-12T16:52:44.605Z,8.53
2019-03-12T16:55:14.172Z,6.67
2019-03-12T16:57:43.356Z,7.80
2019-03-12T17:00:12.780Z,9.10
2019-03-12T17:02:41.988Z,8.30
2019-03-12T17:05:12.172Z,6.97
2019-03-12T17:07:41.477Z,3.93
2019-03-12T17:10:11.293Z,6.73
2019-03-12T17:12:40.451Z,5.60
2019-03-12T17:15:11.244Z,9.97
2019-03-12T17:17:40.358Z,8.07
2019-03-12T17:20:11.004Z,6.70
2019-03-12T17:22:40.226Z,5.40
2019-03-12T17:25:10.010Z,8.07
2019-03-12T17:27:39.302Z,8.03
2019-03-12T17:30:11.863Z,7.57
2019-03-12T17:32:41.001Z,5.93
2019-03-12T17:35:11.373Z,6.10
2019-03-12T17:37:40.675Z,7.20
2019-03-12T17:40:13.302Z,7.87
2019-03-12T17:42:42.514Z,7.47
2019-03-12T17:45:12.186Z,4.00
2019-03-12T17:47:41.376Z,4.90
2019-03-12T17:50:11.138Z,6.43
2019-03-12T17:52:40.401Z,5.83
2019-03-12T17:55:12.171Z,5.33
2019-03-12T17:57:41.418Z,9.40
2019-03-12T18:00:16.248Z,6.90
2019-03-12T18:02:45.434Z,8.40
2019-03-12T18:05:14.997Z,5.40
2019-03-12T18:07:44.281Z,7.80
2019-03-12T18:10:13.961Z,4.63
2019-03-12T18:12:43.152Z,5.43
2019-03-12T18:15:14.483Z,7.63
2019-03-12T18:17:43.866Z,7.67
2019-03-12T18:20:14.052Z,7.90
2019-03-12T18:22:43.404Z,8.37
2019-03-12T18:25:15.538Z,7.37
2019-03-12T18:27:45.046Z,7.17
2019-03-12T18:30:15.976Z,7.93
2019-03-12T18:32:45.464Z,5.93
2019-03-12T18:35:14.991Z,8.80
2019-03-12T18:37:44.162Z,7.80
2019-03-12T18:40:15.901Z,5.33
2019-03-12T18:42:45.081Z,7.23
2019-03-12T18:45:16.528Z,8.87
2019-03-12T18:47:47.609Z,6.03
2019-03-12T18:50:17.160Z,7.20
2019-03-12T18:52:46.466Z,8.60
2019-03-12T18:55:38.552Z,6.83
2019-03-12T18:58:08.147Z,8.90
2019-03-12T19:00:37.433Z,11.77
2019-03-12T19:03:06.601Z,6.67
2019-03-12T19:05:35.809Z,7.13
2019-03-12T19:08:04.958Z,6.73
2019-03-12T19:10:34.232Z,6.17
2019-03-12T19:13:03.373Z,7.13
2019-03-12T19:15:32.593Z,7.70
2019-03-12T19:18:01.769Z,8.93
2019-03-12T19:20:33.035Z,8.80
2019-03-12T19:23:02.117Z,6.10
2019-03-12T19:25:31.661Z,9.33
2019-03-12T19:28:00.966Z,9.13
2019-03-12T19:30:30.257Z,6.67
2019-03-12T19:33:03.368Z,6.97
2019-03-12T19:35:32.691Z,8.87
2019-03-12T19:38:01.858Z,8.43
2019-03-12T19:40:31.809Z,7.67
2019-03-12T19:43:01.134Z,7.63
2019-03-12T19:45:30.463Z,7.43
2019-03-12T19:48:01.670Z,6.27
2019-03-12T19:50:30.632Z,6.10
2019-03-12T19:52:59.833Z,7.40
2019-03-12T19:55:33.095Z,6.77
2019-03-12T19:58:02.344Z,8.83
2019-03-12T20:00:32.704Z,6.67
2019-03-12T20:03:11.832Z,5.90
2019-03-12T20:05:33.429Z,5.43
2019-03-12T20:08:02.917Z,4.77
2019-03-12T20:10:59.204Z,7.57
2019-03-12T20:14:08.579Z,7.27
2019-03-12T20:17:28.748Z,7.47
2019-03-12T20:20:40.743Z,8.53
2019-03-12T20:23:34.649Z,8.80
2019-03-12T20:26:37.178Z,6.80
2019-03-12T20:29:46.338Z,5.47
2019-03-12T20:32:57.929Z,7.67
2019-03-12T20:36:29.645Z,6.17
2019-03-12T20:39:40.166Z,5.30
2019-03-12T20:43:03.331Z,6.57
2019-03-12T20:46:21.611Z,8.20
2019-03-12T20:49:26.288Z,7.50
2019-03-12T20:52:35.446Z,5.33
2019-03-12T20:55:40.848Z,6.13
2019-03-12T20:58:57.158Z,5.27
2019-03-12T21:02:03.989Z,5.97
2019-03-12T21:05:09.533Z,6.67
2019-03-12T21:08:28.865Z,9.00
2019-03-12T21:11:48.255Z,6.60
2019-03-12T21:14:52.675Z,8.63
2019-03-12T21:18:23.103Z,5.27
2019-03-12T21:21:40.225Z,6.80
2019-03-12T21:24:32.755Z,9.00
2019-03-12T21:27:40.299Z,7.03
2019-03-12T21:30:11.584Z,8.70
2019-03-12T21:32:41.549Z,10.37
2019-03-12T21:35:17.854Z,9.07
2019-03-12T21:37:50.690Z,9.40
2019-03-12T21:40:24.023Z,5.93
2019-03-12T21:42:53.572Z,5.33
2019-03-12T21:45:23.354Z,6.27
2019-03-12T21:48:06.374Z,7.73
2019-03-12T21:50:38.874Z,6.50
2019-03-12T21:53:15.179Z,12.13
2019-03-12T21:55:47.422Z,12.57
2019-03-12T21:58:20.345Z,6.17
2019-03-12T22:00:50.331Z,6.47
2019-03-12T22:03:20.296Z,5.50
2019-03-12T22:05:49.952Z,6.23
2019-03-12T22:08:25.296Z,7.20
2019-03-12T22:10:54.095Z,4.40
2019-03-12T22:13:25.052Z,6.70
2019-03-12T22:15:59.056Z,9.80
2019-03-12T22:18:30.104Z,6.77
2019-03-12T22:20:59.281Z,5.87
2019-03-12T22:23:33.747Z,4.53
2019-03-12T22:26:03.455Z,6.97
2019-03-12T22:28:32.683Z,4.73
2019-03-12T22:31:02.085Z,5.07
2019-03-12T22:33:31.547Z,5.37
2019-03-12T22:36:00.652Z,6.00
2019-03-12T22:38:30.025Z,7.40
2019-03-12T22:41:02.934Z,5.00
2019-03-12T22:43:32.130Z,5.43
2019-03-12T22:46:16.615Z,5.00
2019-03-12T22:48:45.785Z,7.50
2019-03-12T22:51:15.184Z,5.47
2019-03-12T22:53:44.294Z,5.27
2019-03-12T22:56:13.616Z,7.23
2019-03-12T22:58:42.985Z,5.83
2019-03-12T23:01:12.198Z,6.77
2019-03-12T23:03:41.349Z,5.90
2019-03-12T23:06:10.461Z,5.53
2019-03-12T23:08:39.635Z,5.17
2019-03-12T23:11:08.989Z,3.90
2019-03-12T23:13:38.680Z,4.97
2019-03-12T23:16:07.921Z,5.03
2019-03-12T23:18:37.021Z,4.03
2019-03-12T23:21:06.268Z,4.37
2019-03-12T23:23:37.352Z,5.07
2019-03-12T23:26:06.456Z,4.67
2019-03-12T23:28:35.695Z,3.87
2019-03-12T23:31:04.852Z,4.00
2019-03-12T23:33:34.016Z,5.13
2019-03-12T23:36:03.234Z,4.60
2019-03-12T23:38:32.415Z,20.63
2019-03-12T23:41:01.576Z,6.50
2019-03-12T23:43:30.708Z,4.50
2019-03-12T23:45:59.964Z,3.80
2019-03-12T23:48:29.218Z,3.70
2019-03-12T23:50:59.066Z,4.73
2019-03-12T23:53:28.170Z,3.87
2019-03-12T23:55:57.401Z,2.77
2019-03-12T23:58:31.013Z,6.47
